Time;durP1;ratioP1;P1;durP2;ratioP2;P2;SDS_P1;SDS_P2;PMS_P1;PMS_P2;Temp;Humidity;BMP_temperature;BMP_pressure;BME280_temperature;BME280_humidity;BME280_pressure;Samples;Min_cycle;Max_cycle;Signal;HPM_P1;HPM_P2
2022/11/28 00:00:02;;;;;;;24.10;13.17;;;7.30;99.90;;;;;;5051623;28;20532;-61
2022/11/28 00:02:28;;;;;;;24.87;12.50;;;7.20;99.90;;;;;;5048588;28;20480;-60
2022/11/28 00:04:55;;;;;;;21.00;12.60;;;7.20;99.90;;;;;;5046490;28;20478;-61
2022/11/28 00:07:22;;;;;;;25.40;12.60;;;7.20;99.90;;;;;;5038559;28;20471;-61
2022/11/28 00:09:49;;;;;;;21.60;13.10;;;7.30;99.90;;;;;;5052191;28;20474;-61
2022/11/28 00:12:15;;;;;;;28.73;14.87;;;7.30;99.90;;;;;;5013071;28;20464;-60
2022/11/28 00:14:42;;;;;;;22.27;12.60;;;7.40;99.90;;;;;;5049704;28;20552;-60
2022/11/28 00:17:10;;;;;;;30.33;16.23;;;7.30;99.90;;;;;;5051784;28;20494;-61
2022/11/28 00:19:38;;;;;;;23.37;12.17;;;7.30;99.90;;;;;;5044608;28;20529;-61
2022/11/28 00:22:04;;;;;;;31.13;15.50;;;7.30;99.90;;;;;;5049368;28;20490;-61
2022/11/28 00:24:31;;;;;;;22.30;12.83;;;7.40;99.90;;;;;;5048502;28;20971;-61
2022/11/28 00:26:58;;;;;;;28.47;16.87;;;7.40;99.90;;;;;;5047207;28;20483;-60
2022/11/28 00:29:25;;;;;;;23.60;11.60;;;7.40;99.90;;;;;;5050838;28;20495;-61
2022/11/28 00:31:51;;;;;;;31.97;19.03;;;7.40;99.90;;;;;;5046367;28;20475;-61
2022/11/28 00:34:20;;;;;;;30.10;17.30;;;7.40;99.90;;;;;;5045538;28;20476;-61
2022/11/28 00:36:47;;;;;;;31.30;18.40;;;7.40;99.90;;;;;;5042632;28;20992;-61
2022/11/28 00:39:15;;;;;;;42.53;21.13;;;7.50;99.90;;;;;;5045730;28;20480;-60
2022/11/28 00:41:42;;;;;;;30.07;15.93;;;7.50;99.90;;;;;;5048078;28;20471;-60
2022/11/28 00:44:09;;;;;;;36.37;20.40;;;7.50;99.90;;;;;;5045503;28;20510;-61
2022/11/28 00:46:36;;;;;;;30.77;18.63;;;7.50;99.90;;;;;;5042981;28;20482;-61
2022/11/28 00:49:03;;;;;;;30.83;17.47;;;7.50;99.90;;;;;;5047667;28;20492;-62
2022/11/28 00:51:32;;;;;;;30.60;18.20;;;7.50;99.90;;;;;;5046702;28;20479;-60
2022/11/28 00:54:01;;;;;;;39.07;20.10;;;7.40;99.90;;;;;;5036351;28;20999;-60
2022/11/28 00:56:30;;;;;;;36.73;20.37;;;7.30;99.90;;;;;;5043734;28;20822;-60
2022/11/28 00:58:57;;;;;;;35.80;20.43;;;7.30;99.90;;;;;;5035296;28;20850;-61
2022/11/28 01:01:25;;;;;;;39.73;18.47;;;7.20;99.90;;;;;;5046915;28;21066;-60
2022/11/28 01:03:54;;;;;;;32.07;20.97;;;7.20;99.90;;;;;;5048159;28;21026;-60
2022/11/28 01:06:23;;;;;;;26.93;15.03;;;7.00;99.90;;;;;;5045624;28;20479;-61
2022/11/28 01:08:52;;;;;;;30.53;14.20;;;6.90;99.90;;;;;;5046532;28;21016;-61
2022/11/28 01:11:19;;;;;;;36.13;18.07;;;6.90;99.90;;;;;;5046286;28;20684;-60
2022/11/28 01:13:46;;;;;;;25.60;16.10;;;6.90;99.90;;;;;;5046015;28;20480;-60
2022/11/28 01:16:13;;;;;;;31.87;15.97;;;7.70;99.90;;;;;;5044431;28;20483;-60
2022/11/28 01:18:40;;;;;;;24.27;14.80;;;7.00;99.90;;;;;;5045829;28;20466;-61
2022/11/28 01:21:07;;;;;;;41.07;20.33;;;6.90;99.90;;;;;;5048179;28;20486;-60
2022/11/28 01:23:34;;;;;;;30.10;13.30;;;6.70;99.90;;;;;;5048718;28;20484;-59
2022/11/28 01:26:04;;;;;;;32.80;16.97;;;6.60;99.90;;;;;;5031830;28;20479;-60
2022/11/28 01:28:31;;;;;;;19.90;12.20;;;;;;;;;;5049025;28;20480;-60
2022/11/28 01:31:04;;;;;;;33.07;14.90;;;6.70;99.90;;;;;;5034046;28;20475;-60
2022/11/28 01:33:31;;;;;;;27.20;13.83;;;6.80;99.90;;;;;;5041705;28;20512;-60
2022/11/28 01:35:58;;;;;;;23.07;13.43;;;6.80;99.90;;;;;;5025447;28;20499;-60
2022/11/28 01:38:26;;;;;;;27.30;14.03;;;6.80;99.90;;;;;;5049533;28;20495;-60
2022/11/28 01:40:53;;;;;;;22.40;12.10;;;6.70;99.90;;;;;;5028325;28;20487;-60
2022/11/28 01:43:22;;;;;;;34.43;13.07;;;6.60;99.90;;;;;;5050210;28;20480;-59
2022/11/28 01:45:49;;;;;;;43.13;17.50;;;6.50;99.90;;;;;;5026134;28;20487;-61
2022/11/28 01:48:21;;;;;;;50.33;19.30;;;6.60;99.90;;;;;;5036102;28;20472;-60
2022/11/28 01:50:50;;;;;;;31.27;11.97;;;6.60;99.90;;;;;;5037909;28;20804;-60
2022/11/28 01:53:17;;;;;;;42.73;16.77;;;6.70;99.90;;;;;;5035472;28;20479;-61
2022/11/28 01:55:50;;;;;;;58.87;18.90;;;;;;;;;;5038208;28;20903;-61
2022/11/28 01:58:16;;;;;;;43.67;15.70;;;6.40;99.90;;;;;;5035981;28;20529;-61
2022/11/28 02:00:45;;;;;;;36.97;14.77;;;6.40;99.90;;;;;;5040802;28;20511;-61
2022/11/28 02:06:34;;;;;;;36.00;14.50;;;6.40;99.90;;;;;;4983325;28;20888;-61
2022/11/28 02:09:00;;;;;;;34.77;13.87;;;6.50;99.90;;;;;;5036639;28;20832;-61
2022/11/28 02:12:09;;;;;;;30.63;13.13;;;6.40;99.90;;;;;;5039236;28;20522;-61
2022/11/28 02:14:52;;;;;;;38.70;15.53;;;6.40;99.90;;;;;;5026973;28;20471;-61
2022/11/28 02:17:29;;;;;;;44.33;16.03;;;6.40;99.90;;;;;;5037153;28;20853;-60
2022/11/28 02:20:37;;;;;;;29.87;13.23;;;6.30;99.90;;;;;;5037294;28;20484;-61
2022/11/28 02:23:10;;;;;;;46.93;16.93;;;6.30;99.90;;;;;;5040883;28;20460;-60
2022/11/28 02:26:07;;;;;;;45.80;17.07;;;6.40;99.90;;;;;;5039078;28;20478;-61
2022/11/28 02:29:07;;;;;;;39.83;14.23;;;6.50;99.90;;;;;;5036506;28;20477;-60
2022/11/28 02:32:08;;;;;;;28.73;12.60;;;6.50;99.90;;;;;;5037274;28;20476;-60
2022/11/28 02:34:40;;;;;;;33.60;13.67;;;;;;;;;;5038239;28;20483;-61
2022/11/28 02:37:11;;;;;;;62.87;19.73;;;6.50;99.90;;;;;;5020940;28;20870;-61
2022/11/28 02:39:47;;;;;;;37.77;14.63;;;6.40;99.90;;;;;;5025310;28;21031;-61
2022/11/28 02:42:19;;;;;;;53.73;16.80;;;6.30;99.90;;;;;;5040031;28;20948;-60
2022/11/28 02:44:54;;;;;;;40.50;14.43;;;6.30;99.90;;;;;;5041315;28;20488;-61
2022/11/28 02:47:25;;;;;;;32.33;13.00;;;6.40;99.90;;;;;;5033980;28;20479;-61
2022/11/28 02:49:58;;;;;;;39.33;12.73;;;6.40;99.90;;;;;;5037824;28;20484;-61
2022/11/28 02:52:31;;;;;;;25.30;11.07;;;6.40;99.90;;;;;;5037028;28;20943;-61
2022/11/28 02:54:59;;;;;;;32.47;12.63;;;6.50;99.90;;;;;;5033137;28;20472;-61
2022/11/28 02:57:34;;;;;;;38.03;14.10;;;6.50;99.90;;;;;;5034855;28;21265;-60
2022/11/28 03:00:00;;;;;;;32.63;12.37;;;6.50;99.90;;;;;;5037023;28;20446;-60
2022/11/28 03:02:31;;;;;;;32.27;12.77;;;6.50;99.90;;;;;;5036736;28;20484;-61
2022/11/28 03:05:07;;;;;;;33.67;12.10;;;6.50;99.90;;;;;;5036730;28;20703;-60
2022/11/28 03:07:51;;;;;;;45.80;16.40;;;6.50;99.90;;;;;;5034792;28;20475;-60
2022/11/28 03:10:29;;;;;;;41.13;14.50;;;6.40;99.90;;;;;;5036679;28;20472;-60
2022/11/28 03:13:06;;;;;;;33.60;12.60;;;6.30;99.90;;;;;;5033754;28;20937;-60
2022/11/28 03:15:42;;;;;;;49.47;17.07;;;6.40;99.90;;;;;;5035575;28;20479;-60
2022/11/28 03:18:13;;;;;;;57.93;17.20;;;6.40;99.90;;;;;;5025946;28;20769;-61
2022/11/28 03:20:46;;;;;;;41.50;13.87;;;6.40;99.90;;;;;;5024774;28;20483;-60
2022/11/28 03:23:16;;;;;;;38.37;14.17;;;6.50;99.90;;;;;;5033186;28;20991;-61
2022/11/28 03:25:53;;;;;;;46.90;15.17;;;6.40;99.90;;;;;;5033807;28;20498;-60
2022/11/28 03:28:25;;;;;;;33.93;13.30;;;6.40;99.90;;;;;;5031771;28;20831;-60
2022/11/28 03:30:56;;;;;;;34.07;13.10;;;6.30;99.90;;;;;;5036087;28;20480;-60
2022/11/28 03:33:27;;;;;;;29.40;12.43;;;6.20;99.90;;;;;;5035017;28;20969;-60
2022/11/28 03:36:00;;;;;;;46.70;16.40;;;6.20;99.90;;;;;;5036649;28;20487;-60
2022/11/28 03:38:33;;;;;;;30.33;13.70;;;6.20;99.90;;;;;;5037587;28;20571;-60
2022/11/28 03:41:07;;;;;;;45.90;17.60;;;6.30;99.90;;;;;;5031921;28;20492;-60
2022/11/28 03:43:39;;;;;;;41.90;16.20;;;6.30;99.90;;;;;;5035286;28;21512;-59
2022/11/28 03:46:11;;;;;;;57.43;18.77;;;6.30;99.90;;;;;;5033858;28;20473;-59
2022/11/28 03:48:42;;;;;;;29.87;12.73;;;6.30;99.90;;;;;;5035469;28;20503;-60
2022/11/28 03:51:15;;;;;;;68.03;19.00;;;6.40;99.90;;;;;;5024606;28;20945;-59
2022/11/28 03:53:50;;;;;;;39.73;12.90;;;6.30;99.90;;;;;;5025156;28;20515;-60
2022/11/28 03:56:22;;;;;;;41.33;14.97;;;6.30;99.90;;;;;;5034179;28;20735;-59
2022/11/28 03:58:55;;;;;;;31.83;12.97;;;6.20;99.90;;;;;;5035353;28;20491;-59
2022/11/28 04:01:29;;;;;;;27.83;11.77;;;6.20;99.90;;;;;;5038250;28;20488;-59
2022/11/28 04:04:07;;;;;;;34.23;13.37;;;6.10;99.90;;;;;;5039229;28;20513;-60
2022/11/28 04:06:44;;;;;;;31.13;13.07;;;6.10;99.90;;;;;;5034183;28;20477;-60
2022/11/28 04:09:17;;;;;;;64.10;18.13;;;5.80;99.90;;;;;;5037529;28;20482;-60
2022/11/28 04:11:49;;;;;;;21.80;9.97;;;5.70;99.90;;;;;;5027485;28;20488;-60
2022/11/28 04:14:22;;;;;;;40.50;14.67;;;5.70;99.90;;;;;;5036540;28;21002;-59
2022/11/28 04:16:53;;;;;;;34.23;13.10;;;5.80;99.90;;;;;;5030731;28;20494;-60
2022/11/28 04:19:28;;;;;;;26.73;10.67;;;5.70;99.90;;;;;;5044354;28;20480;-60
2022/11/28 04:22:01;;;;;;;31.43;13.30;;;5.70;99.90;;;;;;5034220;28;20511;-60
2022/11/28 04:24:31;;;;;;;30.60;14.33;;;5.50;99.90;;;;;;5036076;28;20871;-60
2022/11/28 04:27:01;;;;;;;31.33;12.90;;;5.50;99.90;;;;;;5033855;28;20484;-60
2022/11/28 04:29:33;;;;;;;30.37;13.00;;;5.40;99.90;;;;;;5032122;28;20488;-60
2022/11/28 04:32:02;;;;;;;31.47;12.37;;;5.40;99.90;;;;;;5035300;28;20495;-60
2022/11/28 04:34:32;;;;;;;36.40;11.60;;;5.40;99.90;;;;;;5034951;28;20490;-60
2022/11/28 04:37:01;;;;;;;40.33;14.40;;;5.30;99.90;;;;;;5031785;28;20500;-60
2022/11/28 04:39:30;;;;;;;28.00;12.67;;;5.30;99.90;;;;;;5035041;28;20472;-60
2022/11/28 04:42:01;;;;;;;35.60;12.47;;;5.40;99.90;;;;;;5034250;28;20483;-60
2022/11/28 04:44:35;;;;;;;27.83;12.60;;;5.50;99.90;;;;;;5035015;28;20897;-60
2022/11/28 04:47:02;;;;;;;40.40;14.67;;;5.50;99.90;;;;;;5031891;28;20480;-61
2022/11/28 04:49:31;;;;;;;28.93;12.67;;;5.60;99.90;;;;;;5027108;28;20494;-60
2022/11/28 04:52:06;;;;;;;39.23;14.90;;;5.60;99.90;;;;;;5047603;28;20507;-60
2022/11/28 04:54:40;;;;;;;38.40;13.87;;;5.70;99.90;;;;;;5036581;28;20475;-60
2022/11/28 04:57:14;;;;;;;57.73;18.70;;;5.80;99.90;;;;;;5033468;28;20930;-60
2022/11/28 04:59:42;;;;;;;56.90;13.90;;;5.80;99.90;;;;;;5032670;28;20940;-60
2022/11/28 05:02:11;;;;;;;53.33;16.17;;;5.80;99.90;;;;;;5046401;28;20490;-60
2022/11/28 05:04:40;;;;;;;27.90;13.13;;;5.80;99.90;;;;;;5039583;28;20476;-60
2022/11/28 05:07:08;;;;;;;50.30;18.13;;;5.90;99.90;;;;;;5037104;28;20906;-60
2022/11/28 05:09:35;;;;;;;37.23;16.57;;;5.90;99.90;;;;;;5040566;28;20483;-60
2022/11/28 05:12:02;;;;;;;54.20;18.10;;;6.00;99.90;;;;;;5038675;28;20472;-60
2022/11/28 05:14:29;;;;;;;29.70;13.03;;;6.20;99.90;;;;;;5038338;28;21299;-60
2022/11/28 05:16:56;;;;;;;33.37;12.90;;;6.30;99.90;;;;;;5035799;28;20507;-60
2022/11/28 05:19:23;;;;;;;35.10;13.67;;;6.40;99.90;;;;;;5038002;28;20983;-60
2022/11/28 05:21:52;;;;;;;39.57;14.03;;;6.50;99.90;;;;;;5039050;28;20999;-60
2022/11/28 05:24:19;;;;;;;34.50;13.07;;;6.50;99.90;;;;;;5037880;28;20479;-60
2022/11/28 05:26:45;;;;;;;31.87;13.27;;;6.60;99.90;;;;;;5037532;28;20476;-60
2022/11/28 05:29:12;;;;;;;47.47;16.27;;;6.70;99.90;;;;;;5041354;28;20484;-60
2022/11/28 05:31:39;;;;;;;35.53;14.13;;;6.60;99.90;;;;;;5038413;28;20477;-60
2022/11/28 05:34:05;;;;;;;69.53;21.47;;;6.50;99.90;;;;;;5038050;28;20491;-60
2022/11/28 05:36:32;;;;;;;32.50;12.50;;;6.50;99.90;;;;;;5036103;28;20484;-60
2022/11/28 05:39:00;;;;;;;37.87;14.20;;;6.50;99.90;;;;;;5038180;28;20523;-60
2022/11/28 05:41:28;;;;;;;28.37;12.83;;;6.50;99.90;;;;;;5040389;28;20484;-60
2022/11/28 05:43:56;;;;;;;27.07;10.63;;;6.40;99.90;;;;;;5036379;28;20499;-60
2022/11/28 05:46:23;;;;;;;32.23;12.67;;;6.40;99.90;;;;;;5043404;28;20553;-60
2022/11/28 05:48:50;;;;;;;32.70;13.50;;;6.50;99.90;;;;;;5036275;28;20910;-60
2022/11/28 05:51:17;;;;;;;39.53;13.30;;;6.50;99.90;;;;;;5033363;28;20480;-60
2022/11/28 05:53:44;;;;;;;24.43;11.57;;;6.50;99.90;;;;;;5028637;28;20491;-60
2022/11/28 05:56:14;;;;;;;49.17;16.80;;;6.60;99.90;;;;;;5025486;28;20480;-60
2022/11/28 05:58:42;;;;;;;34.90;12.97;;;6.60;99.90;;;;;;5034031;28;21303;-60
2022/11/28 06:01:10;;;;;;;48.40;16.30;;;6.70;99.90;;;;;;5026638;28;20483;-60
2022/11/28 06:03:37;;;;;;;30.40;12.30;;;;;;;;;;5045282;28;20492;-60
2022/11/28 06:06:04;;;;;;;54.47;17.90;;;6.70;99.90;;;;;;5035561;28;20745;-61
2022/11/28 06:08:31;;;;;;;37.60;14.93;;;6.80;99.90;;;;;;5038749;28;20547;-61
2022/11/28 06:10:59;;;;;;;31.20;12.13;;;;;;;;;;5038516;28;20484;-62
2022/11/28 06:13:27;;;;;;;29.43;12.17;;;6.90;99.90;;;;;;5040362;28;20847;-61
2022/11/28 06:15:53;;;;;;;41.60;14.17;;;6.90;99.90;;;;;;5037985;28;20481;-61
2022/11/28 06:18:20;;;;;;;39.40;14.30;;;6.90;99.90;;;;;;5038878;28;20496;-61
2022/11/28 06:20:47;;;;;;;43.00;14.40;;;7.00;99.90;;;;;;5039182;28;20487;-61
2022/11/28 06:23:13;;;;;;;60.80;17.27;;;7.10;99.90;;;;;;5038548;28;20484;-60
2022/11/28 06:25:40;;;;;;;56.73;15.83;;;;;;;;;;5038348;28;20480;-60
2022/11/28 06:28:07;;;;;;;57.43;17.50;;;7.10;99.90;;;;;;5040355;28;20495;-60
2022/11/28 06:30:35;;;;;;;30.83;12.20;;;7.10;99.90;;;;;;5039601;28;20511;-61
2022/11/28 06:33:02;;;;;;;48.33;16.50;;;7.10;99.90;;;;;;5028295;28;20478;-61
2022/11/28 06:35:29;;;;;;;46.53;15.20;;;7.00;99.90;;;;;;5036730;28;20850;-61
2022/11/28 06:37:55;;;;;;;36.37;12.57;;;7.00;99.90;;;;;;5037168;28;20476;-60
2022/11/28 06:40:22;;;;;;;32.87;12.97;;;;;;;;;;5036411;28;20484;-61
2022/11/28 06:42:50;;;;;;;30.80;12.97;;;6.90;99.90;;;;;;5037844;28;20484;-61
2022/11/28 06:45:16;;;;;;;47.47;15.70;;;6.80;99.90;;;;;;5038173;28;21142;-61
2022/11/28 06:47:44;;;;;;;38.80;12.63;;;6.90;99.90;;;;;;5035635;28;21215;-61
2022/11/28 06:50:11;;;;;;;50.03;15.90;;;7.00;99.90;;;;;;5036102;28;20487;-62
2022/11/28 06:52:38;;;;;;;29.13;12.10;;;7.00;99.90;;;;;;5038705;28;20474;-61
2022/11/28 06:55:06;;;;;;;47.93;15.17;;;7.00;99.90;;;;;;5040404;28;20484;-61
2022/11/28 06:57:33;;;;;;;30.47;12.90;;;7.00;99.90;;;;;;5036192;28;20480;-61
2022/11/28 06:59:59;;;;;;;38.33;13.77;;;7.00;99.90;;;;;;5036741;28;20475;-61
2022/11/28 07:02:26;;;;;;;34.47;12.90;;;6.90;99.90;;;;;;5034940;28;20503;-61
2022/11/28 07:04:54;;;;;;;26.80;11.73;;;7.00;99.90;;;;;;5035680;28;20526;-61
2022/11/28 07:07:21;;;;;;;25.87;11.70;;;6.90;99.90;;;;;;5040316;28;20481;-61
2022/11/28 07:09:48;;;;;;;24.60;10.60;;;7.00;99.90;;;;;;5036662;28;20540;-62
2022/11/28 07:12:14;;;;;;;45.60;16.00;;;7.00;99.90;;;;;;5035835;28;20476;-61
2022/11/28 07:14:41;;;;;;;44.17;15.43;;;7.00;99.90;;;;;;5036024;28;20514;-61
2022/11/28 07:17:08;;;;;;;47.23;17.10;;;7.10;99.90;;;;;;5035045;28;20484;-61
2022/11/28 07:19:34;;;;;;;25.73;14.47;;;7.10;99.90;;;;;;5036379;28;20476;-61
2022/11/28 07:22:04;;;;;;;45.40;19.27;;;7.20;99.90;;;;;;5039132;28;20784;-61
2022/11/28 07:24:30;;;;;;;33.83;15.73;;;7.30;99.90;;;;;;5037110;28;20487;-61
2022/11/28 07:26:57;;;;;;;27.10;12.57;;;7.30;99.90;;;;;;5037997;28;20484;-61
2022/11/28 07:29:29;;;;;;;23.23;12.63;;;7.30;99.90;;;;;;5037716;28;20485;-61
2022/11/28 07:31:56;;;;;;;45.13;15.57;;;7.40;99.90;;;;;;5035785;28;20881;-61
2022/11/28 07:34:22;;;;;;;24.50;14.70;;;7.40;99.90;;;;;;5037409;28;20793;-61
2022/11/28 07:36:49;;;;;;;28.83;16.70;;;7.50;99.90;;;;;;5034649;28;20491;-61
2022/11/28 07:39:17;;;;;;;33.70;17.93;;;7.50;99.90;;;;;;5034902;28;20913;-61
2022/11/28 07:41:44;;;;;;;29.23;16.47;;;7.60;99.90;;;;;;5036834;28;20965;-60
2022/11/28 07:44:16;;;;;;;32.70;17.80;;;7.50;99.90;;;;;;5034663;28;20476;-61
2022/11/28 07:46:43;;;;;;;24.13;11.43;;;7.50;99.90;;;;;;5025226;28;20504;-61
2022/11/28 07:49:11;;;;;;;31.80;14.33;;;7.50;99.90;;;;;;5050602;28;20472;-61
2022/11/28 07:51:37;;;;;;;21.63;11.40;;;7.60;99.90;;;;;;5036482;28;20480;-60
2022/11/28 07:54:04;;;;;;;34.60;15.27;;;7.80;99.90;;;;;;5036397;28;20495;-61
2022/11/28 07:56:35;;;;;;;17.07;9.17;;;7.80;99.90;;;;;;5036891;28;20487;-60
2022/11/28 07:59:01;;;;;;;24.10;12.60;;;7.80;99.90;;;;;;5038551;28;20971;-60
2022/11/28 08:01:32;;;;;;;24.37;9.93;;;7.90;99.90;;;;;;5035138;28;20484;-60
2022/11/28 08:03:59;;;;;;;18.77;11.17;;;7.90;99.90;;;;;;5034382;28;20487;-61
2022/11/28 08:06:28;;;;;;;24.43;13.00;;;7.90;99.90;;;;;;5024686;28;20480;-61
2022/11/28 08:08:56;;;;;;;18.73;9.40;;;8.00;99.90;;;;;;5051476;28;20491;-60
2022/11/28 08:11:24;;;;;;;20.17;10.10;;;8.00;99.90;;;;;;5034740;28;20487;-61
2022/11/28 08:13:52;;;;;;;21.60;8.93;;;8.20;99.90;;;;;;5035954;28;20764;-61
2022/11/28 08:16:21;;;;;;;21.03;10.20;;;9.50;99.90;;;;;;5024330;28;20789;-61
2022/11/28 08:18:48;;;;;;;21.27;9.90;;;8.40;99.90;;;;;;5031530;28;20480;-61
2022/11/28 08:21:18;;;;;;;28.67;11.27;;;8.50;99.90;;;;;;5031565;28;20479;-60
2022/11/28 08:23:45;;;;;;;16.50;8.47;;;8.50;99.90;;;;;;5032079;28;20486;-61
2022/11/28 08:26:15;;;;;;;29.37;13.30;;;8.60;99.90;;;;;;5043646;28;20476;-61
2022/11/28 08:28:42;;;;;;;21.80;8.10;;;8.70;99.90;;;;;;5047289;28;20485;-61
2022/11/28 08:31:12;;;;;;;40.93;14.90;;;8.70;99.90;;;;;;5052257;28;20478;-60
2022/11/28 08:33:39;;;;;;;17.40;8.03;;;8.70;99.90;;;;;;5057879;28;20483;-60
2022/11/28 08:36:07;;;;;;;38.53;13.60;;;8.70;99.90;;;;;;5052567;28;20483;-61
2022/11/28 08:38:34;;;;;;;20.60;9.67;;;8.70;99.90;;;;;;5052696;28;20483;-60
2022/11/28 08:41:01;;;;;;;25.07;10.80;;;8.80;99.90;;;;;;5052019;28;20482;-61
2022/11/28 08:43:28;;;;;;;24.67;8.43;;;8.80;99.90;;;;;;5052023;28;20570;-60
2022/11/28 08:45:58;;;;;;;14.80;8.40;;;8.80;99.90;;;;;;5048620;28;20488;-61
2022/11/28 08:48:30;;;;;;;18.20;9.27;;;;;;;;;;5049683;28;20555;-60
2022/11/28 08:51:00;;;;;;;20.23;8.80;;;8.90;99.90;;;;;;5041378;28;20476;-61
2022/11/28 08:53:27;;;;;;;16.93;9.30;;;8.90;99.90;;;;;;5065417;28;20807;-60
2022/11/28 08:55:54;;;;;;;23.80;10.13;;;8.90;99.90;;;;;;5046726;28;20476;-61
2022/11/28 08:58:20;;;;;;;29.33;10.80;;;8.90;99.90;;;;;;5052910;28;20864;-61
2022/11/28 09:00:47;;;;;;;21.37;9.63;;;8.90;99.90;;;;;;5052951;28;20486;-62
2022/11/28 09:03:15;;;;;;;40.40;14.23;;;8.90;99.90;;;;;;5048584;28;20978;-61
2022/11/28 09:05:44;;;;;;;32.83;13.00;;;9.00;99.90;;;;;;5054551;28;20475;-61
2022/11/28 09:08:12;;;;;;;34.37;13.20;;;9.00;99.90;;;;;;5049981;28;20488;-61
2022/11/28 09:10:40;;;;;;;25.33;8.50;;;9.00;99.90;;;;;;5046703;28;20471;-62
2022/11/28 09:13:07;;;;;;;40.70;15.27;;;9.00;99.90;;;;;;5053099;28;20727;-62
2022/11/28 09:15:34;;;;;;;33.73;12.10;;;9.10;99.90;;;;;;5045702;28;20479;-62
2022/11/28 09:18:01;;;;;;;26.53;10.97;;;9.10;99.90;;;;;;5053726;28;20488;-61
2022/11/28 09:20:27;;;;;;;23.53;8.37;;;9.20;99.90;;;;;;5054879;28;20483;-62
2022/11/28 09:22:55;;;;;;;30.77;10.63;;;9.20;99.90;;;;;;5050498;28;20878;-61
2022/11/28 09:25:22;;;;;;;25.83;10.83;;;9.20;99.90;;;;;;5050652;28;21081;-61
2022/11/28 09:27:49;;;;;;;18.43;8.63;;;9.30;99.90;;;;;;5049720;28;20494;-61
2022/11/28 09:30:16;;;;;;;40.83;13.03;;;9.30;99.90;;;;;;5051370;28;20513;-62
2022/11/28 09:32:47;;;;;;;34.60;10.83;;;9.40;99.90;;;;;;5051668;28;21068;-61
2022/11/28 09:35:14;;;;;;;53.73;16.87;;;;;;;;;;5049776;28;20479;-61
2022/11/28 09:37:41;;;;;;;33.60;10.23;;;;;;;;;;5049152;28;20479;-61
2022/11/28 09:40:16;;;;;;;39.70;10.40;;;9.50;99.90;;;;;;5051177;28;20475;-61
2022/11/28 09:42:43;;;;;;;30.10;10.20;;;;;;;;;;5036059;28;21082;-61
2022/11/28 09:45:14;;;;;;;59.53;15.90;;;9.60;99.90;;;;;;5049272;28;20494;-61
2022/11/28 09:47:44;;;;;;;47.93;12.17;;;9.70;99.90;;;;;;5045902;28;20474;-61
2022/11/28 09:50:15;;;;;;;49.03;13.47;;;9.70;99.90;;;;;;5050993;28;20958;-61
2022/11/28 09:52:48;;;;;;;23.10;9.00;;;9.80;99.90;;;;;;5042977;28;20483;-61
2022/11/28 09:55:24;;;;;;;58.13;15.70;;;9.90;99.90;;;;;;5050925;28;20468;-60
2022/11/28 09:57:53;;;;;;;32.03;11.03;;;10.00;99.90;;;;;;5039317;28;20506;-61
2022/11/28 10:00:22;;;;;;;34.07;10.70;;;;;;;;;;5052315;28;20490;-61
2022/11/28 10:02:54;;;;;;;40.90;10.37;;;;;;;;;;5055693;28;20849;-61
2022/11/28 10:05:28;;;;;;;30.23;9.73;;;10.40;99.90;;;;;;5051759;28;20548;-61
2022/11/28 10:08:13;;;;;;;28.20;10.87;;;10.40;99.90;;;;;;5046001;28;20487;-61
2022/11/28 10:10:48;;;;;;;42.33;10.13;;;;;;;;;;5049555;28;20463;-61
2022/11/28 10:13:23;;;;;;;45.17;13.17;;;10.40;99.90;;;;;;5038858;28;20476;-61
2022/11/28 10:15:55;;;;;;;46.50;12.80;;;;;;;;;;5040245;28;21574;-61
2022/11/28 10:18:35;;;;;;;35.63;10.63;;;;;;;;;;5044229;28;20470;-61
2022/11/28 10:21:08;;;;;;;41.03;9.80;;;10.60;99.90;;;;;;5049849;28;20483;-61
2022/11/28 10:23:38;;;;;;;41.17;10.03;;;;;;;;;;5047531;28;20498;-61
2022/11/28 10:26:12;;;;;;;43.07;12.87;;;10.60;99.90;;;;;;5035230;28;20920;-61
2022/11/28 10:28:43;;;;;;;42.67;10.80;;;10.70;99.90;;;;;;5044828;28;20763;-61
2022/11/28 10:31:16;;;;;;;39.50;12.43;;;10.70;99.90;;;;;;5050737;28;20483;-60
2022/11/28 10:33:47;;;;;;;35.30;9.10;;;10.70;99.90;;;;;;5051848;28;20478;-61
2022/11/28 10:36:21;;;;;;;59.63;15.20;;;10.80;99.90;;;;;;5036077;28;20459;-61
2022/11/28 10:38:47;;;;;;;27.50;8.03;;;10.80;99.90;;;;;;5043236;28;20908;-61
2022/11/28 10:41:25;;;;;;;54.30;14.67;;;10.70;99.90;;;;;;5046033;28;20486;-61
2022/11/28 10:43:58;;;;;;;41.53;10.57;;;10.70;99.90;;;;;;5052480;28;20467;-61
2022/11/28 10:46:42;;;;;;;36.93;9.53;;;10.70;99.90;;;;;;5044164;28;20488;-61
2022/11/28 10:49:26;;;;;;;64.87;16.60;;;10.70;99.90;;;;;;5047981;28;20473;-61
2022/11/28 10:52:01;;;;;;;39.50;10.70;;;10.80;99.90;;;;;;5039956;28;20479;-61
2022/11/28 10:54:45;;;;;;;45.40;11.50;;;8.40;99.90;;;;;;5047527;28;20998;-60
2022/11/28 10:57:18;;;;;;;76.37;17.20;;;10.90;99.90;;;;;;5047186;28;20472;-60
2022/11/28 10:59:59;;;;;;;54.43;12.67;;;10.90;99.90;;;;;;5039616;28;20476;-61
2022/11/28 11:02:33;;;;;;;38.03;9.63;;;10.90;99.90;;;;;;5049294;28;20470;-61
2022/11/28 11:05:00;;;;;;;56.33;13.83;;;11.00;99.90;;;;;;5044360;28;21233;-61
2022/11/28 11:07:29;;;;;;;30.03;9.47;;;11.00;99.90;;;;;;5045558;28;20486;-61
2022/11/28 11:10:00;;;;;;;47.87;11.37;;;11.10;99.90;;;;;;5047873;28;20487;-61
2022/11/28 11:12:31;;;;;;;35.73;11.03;;;11.10;99.90;;;;;;5045065;28;20476;-61
2022/11/28 11:14:58;;;;;;;37.43;10.10;;;11.10;99.90;;;;;;5050184;28;20506;-61
2022/11/28 11:17:31;;;;;;;41.13;11.03;;;11.10;99.90;;;;;;5045051;28;20594;-61
2022/11/28 11:19:58;;;;;;;41.17;10.37;;;11.20;99.90;;;;;;5046074;28;21013;-61
2022/11/28 11:22:28;;;;;;;40.37;9.73;;;11.20;99.90;;;;;;5051370;28;20471;-61
2022/11/28 11:25:14;;;;;;;35.50;9.60;;;11.20;99.90;;;;;;5046985;28;21054;-62
2022/11/28 11:27:50;;;;;;;46.20;9.77;;;;;;;;;;5043323;28;20884;-62
2022/11/28 11:30:23;;;;;;;72.57;14.13;;;11.30;99.90;;;;;;5041816;28;20836;-61
2022/11/28 11:32:50;;;;;;;32.67;9.00;;;11.30;99.90;;;;;;5034665;28;20480;-62
2022/11/28 11:35:21;;;;;;;59.60;13.37;;;11.30;99.90;;;;;;5041779;28;20478;-62
2022/11/28 11:37:48;;;;;;;37.57;10.63;;;;;;;;;;5024041;28;21101;-62
2022/11/28 11:40:24;;;;;;;80.83;16.37;;;11.20;99.90;;;;;;5045240;28;20479;-61
2022/11/28 11:42:55;;;;;;;47.27;12.27;;;11.10;99.90;;;;;;5042478;28;20685;-62
2022/11/28 11:45:30;;;;;;;45.87;12.30;;;11.20;99.90;;;;;;5040393;28;20598;-62
2022/11/28 11:47:57;;;;;;;36.07;10.07;;;11.00;99.90;;;;;;5032576;28;20475;-62
2022/11/28 11:50:27;;;;;;;50.90;11.70;;;11.10;99.90;;;;;;5042139;28;20475;-61
2022/11/28 11:53:01;;;;;;;32.93;10.43;;;;;;;;;;5036464;28;20856;-62
2022/11/28 11:55:30;;;;;;;41.07;9.73;;;11.10;99.90;;;;;;5043630;28;20470;-62
2022/11/28 11:58:02;;;;;;;38.77;11.23;;;11.20;99.90;;;;;;5025801;28;20490;-62
2022/11/28 12:00:34;;;;;;;32.03;9.60;;;11.20;99.90;;;;;;5036612;28;20932;-62
2022/11/28 12:03:11;;;;;;;61.60;13.17;;;11.30;99.90;;;;;;5031199;28;20482;-60
2022/11/28 12:05:48;;;;;;;51.57;12.40;;;11.30;99.90;;;;;;5040846;28;20526;-62
2022/11/28 12:08:19;;;;;;;38.67;10.90;;;11.30;99.90;;;;;;5048729;28;20514;-61
2022/11/28 12:10:51;;;;;;;36.00;9.17;;;11.30;99.90;;;;;;5045671;28;20480;-61
2022/11/28 12:13:20;;;;;;;42.97;9.70;;;;;;;;;;5048101;28;20482;-61
2022/11/28 12:15:55;;;;;;;66.27;14.73;;;11.50;99.90;;;;;;5029637;28;20488;-62
2022/11/28 12:18:32;;;;;;;30.17;9.07;;;11.60;99.90;;;;;;5049384;28;20490;-62
2022/11/28 12:21:11;;;;;;;45.63;12.13;;;11.60;99.90;;;;;;5040780;28;20486;-62
2022/11/28 12:24:00;;;;;;;27.47;9.70;;;11.70;99.90;;;;;;5060690;28;20611;-62
2022/11/28 12:26:33;;;;;;;34.10;9.43;;;11.60;99.90;;;;;;5042762;28;20480;-62
2022/11/28 12:29:19;;;;;;;38.43;11.77;;;11.70;99.90;;;;;;5047261;28;20482;-62
2022/11/28 12:31:55;;;;;;;26.30;9.00;;;11.70;99.90;;;;;;5045983;28;20884;-61
2022/11/28 12:34:32;;;;;;;49.70;11.10;;;11.80;99.90;;;;;;5049352;28;21004;-62
2022/11/28 12:37:07;;;;;;;22.60;9.30;;;11.80;99.90;;;;;;5043625;28;21006;-62
2022/11/28 12:39:42;;;;;;;18.83;9.33;;;11.70;99.90;;;;;;5046787;28;20494;-62
2022/11/28 12:42:49;;;;;;;29.73;13.50;;;11.80;99.90;;;;;;5046051;28;20482;-62
2022/11/28 12:45:32;;;;;;;29.97;12.80;;;11.80;99.90;;;;;;5026677;28;20483;-61
2022/11/28 12:48:09;;;;;;;35.07;10.40;;;11.80;99.90;;;;;;5045226;28;20475;-61
2022/11/28 12:50:39;;;;;;;14.67;8.03;;;11.70;99.90;;;;;;5036194;28;20568;-62
2022/11/28 12:53:41;;;;;;;27.53;13.40;;;11.70;99.90;;;;;;5039875;28;20491;-62
2022/11/28 12:56:22;;;;;;;26.93;12.40;;;11.70;99.90;;;;;;4996465;28;20478;-62
2022/11/28 12:58:57;;;;;;;16.03;8.60;;;11.70;99.90;;;;;;5047356;28;20478;-61
2022/11/28 13:01:42;;;;;;;17.63;9.30;;;11.70;99.90;;;;;;5035252;28;20486;-61
2022/11/28 13:04:20;;;;;;;17.53;10.17;;;11.70;99.90;;;;;;5047317;28;20995;-62